»·PEaware :: N101UD KVGT-KSMO

N101UD :: KVGT-KSMO

FLIGHT INFORMATION

Flight Status: Arrived
Operator: Privately registered:
United States
More flights under this callsign
Pilot: Anonymous 16342 (16342)
Aircraft: BOMBARDIER BD-100 CHALLENGER 300
(CL30)
More flights by this aircraft type
Origin: KVGT North Las Vegas
United States
Destination: KSMO Santa Monica Mun
United States
More flights between these airports :: More routes between these airports
Route: RTTRN3 LAS PURSE BOGET2
File this flight plan on PilotEdge
Remarks:
Altitude:
(Current/Filed)
32,000ft
Speed:
(Current/Filed)
480kts
Departed: 24-Aug-18 09:07 AM
Arrived: 24-Aug-18 10:05 AM
Distance/Time
Traveled:
207nm/0:58
Distance/Time
To Go:
Arrived

Flight Plot

Page will automatically refresh every two minutes.

Flight plan parsing failed; only flown route is shown


Map Options




Map Legend


Flown Route
Filed Route
Departure Airport
Arrival Airport
Navaid (VOR, NDB)
Fix

Horizontal Profiles

Position Reports

Time Latitude Longitude Heading Altitude Ground
Speed
24-Aug-18 08:33 36.204946 -115.192050 60 2201ft 0kts
24-Aug-18 08:34 36.204946 -115.192050 60 2201ft 0kts
24-Aug-18 08:35 36.204946 -115.192050 60 2201ft 0kts
24-Aug-18 08:36 36.204946 -115.192050 60 2201ft 0kts
24-Aug-18 08:37 36.204946 -115.192050 60 2201ft 0kts
24-Aug-18 08:38 36.204946 -115.192050 60 2201ft 0kts
24-Aug-18 08:39 36.204946 -115.192050 60 2201ft 0kts
24-Aug-18 08:40 36.204946 -115.192050 60 2201ft 0kts
24-Aug-18 08:41 36.204946 -115.192050 60 2201ft 0kts
24-Aug-18 08:42 36.208297 -115.197781 177 2201ft 0kts
24-Aug-18 08:45 36.208297 -115.197781 177 2201ft 0kts
24-Aug-18 08:51 36.208297 -115.197781 177 2201ft 0kts
24-Aug-18 08:52 36.208297 -115.197781 177 2201ft 0kts
24-Aug-18 08:53 36.208297 -115.197781 177 2201ft 0kts
24-Aug-18 08:54 36.208297 -115.197781 177 2201ft 0kts
24-Aug-18 08:55 36.208297 -115.197781 177 2201ft 0kts
24-Aug-18 08:56 36.208297 -115.197781 177 2201ft 0kts
24-Aug-18 08:57 36.208297 -115.197781 177 2201ft 0kts
24-Aug-18 08:58 36.208297 -115.197781 177 2201ft 0kts
24-Aug-18 08:59 36.208297 -115.197781 177 2201ft 0kts
24-Aug-18 09:00 36.208106 -115.196782 91 2201ft 0kts
24-Aug-18 09:01 36.208106 -115.196782 91 2201ft 0kts
24-Aug-18 09:02 36.208106 -115.196754 91 2201ft 0kts
24-Aug-18 09:03 36.208105 -115.196709 90 2201ft 0kts
24-Aug-18 09:04 36.208016 -115.196151 125 2201ft 12kts
24-Aug-18 09:05 36.210249 -115.198235 315 2201ft 32kts
24-Aug-18 09:06 36.212457 -115.200987 4 2201ft 0kts
24-Aug-18 09:07 36.212457 -115.200987 4 2201ft 0kts
24-Aug-18 09:08 36.211901 -115.199153 131 2201ft 54kts
24-Aug-18 09:09 36.182444 -115.187952 231 3277ft 157kts
24-Aug-18 09:10 36.178551 -115.237508 318 4676ft 152kts
24-Aug-18 09:11 36.218105 -115.269187 329 6946ft 184kts
24-Aug-18 09:12 36.260641 -115.273397 72 9452ft 189kts
24-Aug-18 09:13 36.222735 -115.234208 156 11700ft 208kts
24-Aug-18 09:14 36.169100 -115.207427 155 13920ft 215kts
24-Aug-18 09:15 36.108753 -115.174813 154 15881ft 282kts
24-Aug-18 09:16 36.029439 -115.165512 182 18984ft 313kts
24-Aug-18 09:17 35.932494 -115.171688 183 19732ft 371kts
24-Aug-18 09:18 35.828453 -115.179301 183 21848ft 403kts
24-Aug-18 09:19 35.721427 -115.187408 183 25766ft 387kts
24-Aug-18 09:20 35.612116 -115.197227 194 28241ft 404kts
24-Aug-18 09:21 35.529053 -115.277635 224 31243ft 387kts
24-Aug-18 09:22 35.453253 -115.374091 227 32038ft 410kts
24-Aug-18 09:23 35.373465 -115.480157 227 32037ft 435kts
24-Aug-18 09:24 35.291206 -115.590435 227 32031ft 441kts
24-Aug-18 09:25 35.221767 -115.683477 227 32036ft 438kts
24-Aug-18 09:26 35.139821 -115.793022 227 32051ft 433kts
24-Aug-18 09:27 35.075520 -115.912253 236 31154ft 405kts
24-Aug-18 09:28 35.018333 -116.023819 237 28695ft 373kts
24-Aug-18 09:29 34.964707 -116.128764 236 25735ft 363kts
24-Aug-18 09:30 34.913684 -116.234220 242 24071ft 374kts
24-Aug-18 09:31 34.873131 -116.337175 243 24044ft 397kts
24-Aug-18 09:32 34.825045 -116.460310 243 23171ft 408kts
24-Aug-18 09:33 34.787143 -116.586811 259 22984ft 396kts
24-Aug-18 09:34 34.774218 -116.701431 260 22133ft 403kts
24-Aug-18 09:35 34.760856 -116.832544 260 22017ft 385kts
24-Aug-18 09:36 34.748554 -116.953784 261 21274ft 372kts
24-Aug-18 09:37 34.736105 -117.075765 262 19870ft 361kts
24-Aug-18 09:38 34.723840 -117.195294 262 18366ft 352kts
24-Aug-18 09:39 34.711778 -117.311787 262 16765ft 345kts
24-Aug-18 09:40 34.699789 -117.426462 262 15676ft 341kts
24-Aug-18 09:41 34.687803 -117.539740 262 14618ft 336kts
24-Aug-18 09:42 34.676125 -117.649538 263 14022ft 338kts
24-Aug-18 09:43 34.664989 -117.754471 262 14003ft 346kts
24-Aug-18 09:44 34.648989 -117.868733 248 13995ft 344kts
24-Aug-18 09:45 34.614225 -117.970922 247 12181ft 334kts
24-Aug-18 09:46 34.579614 -118.068985 247 11000ft 304kts
24-Aug-18 09:47 34.548142 -118.157062 247 9827ft 287kts
24-Aug-18 09:48 34.513646 -118.239428 216 8427ft 271kts
24-Aug-18 09:49 34.444290 -118.269321 198 7519ft 256kts
24-Aug-18 09:50 34.376787 -118.284138 182 7072ft 245kts
24-Aug-18 09:51 34.309500 -118.292460 202 7034ft 263kts
24-Aug-18 09:52 34.251032 -118.320493 202 6200ft 210kts
24-Aug-18 09:53 34.207583 -118.314901 145 5813ft 158kts
24-Aug-18 09:54 34.173550 -118.286396 145 5010ft 150kts
24-Aug-18 09:55 34.138210 -118.272534 192 5017ft 164kts
24-Aug-18 09:56 34.102963 -118.295099 277 3953ft 158kts
24-Aug-18 09:57 34.107922 -118.345477 280 3928ft 164kts
24-Aug-18 09:58 34.119387 -118.410559 299 3970ft 183kts
24-Aug-18 09:59 34.145756 -118.397966 100 4036ft 174kts
24-Aug-18 10:00 34.134553 -118.336664 102 3471ft 191kts
24-Aug-18 10:01 34.101769 -118.320338 230 2992ft 143kts
24-Aug-18 10:02 34.081924 -118.355071 238 2416ft 122kts
24-Aug-18 10:03 34.062638 -118.388908 236 1703ft 117kts
24-Aug-18 10:04 34.042883 -118.417938 226 710ft 114kts
24-Aug-18 10:05 34.020976 -118.445226 225 203ft 111kts
24-Aug-18 10:06 34.014897 -118.453500 219 141ft 8kts
24-Aug-18 10:07 34.014331 -118.454719 131 141ft 0kts
24-Aug-18 10:08 34.014331 -118.454719 131 141ft 0kts
24-Aug-18 10:09 34.014331 -118.454719 131 141ft 0kts

Navigation Log

Ident Type
Flight plan parsing failed, navigation log unavailable